Barton-le-Clay, United Kingdom
Current Conditions -  °F | °C
As of 2:20 AM on Wednesday 22 Oct 2014 (Local Time) from EGGW Reporting Station
Clear Clear  
Wind Chill: 35°   Ceiling: Unl
Heat Index: 43°   Visibility: 6mi
Dew Point: 36°   Wind: 16mph
Humidity: 76%   Direction: 280°W
Pressure: 30.18"   Gusts: NA
Location:  51.97°N, 0.43°W
Report Text: EGGW 220120Z 28014KT CAVOK 06/02 Q1022
Loading
Personal Weather Stations






























Interactive Weather Map
Tropical Storm Tracking
New forecast layout! Learn more

10-Day Weather Forecast

Advertisements
Track Severe Weather on mobile